»·PEaware :: GBNKE KMHV-KVCV

GBNKE :: KMHV-KVCV

FLIGHT INFORMATION

Flight Status: Arrived
Operator: Unknown
More flights by this operator :: More flights under this callsign
Pilot: Andrew L. (44060)
Aircraft: CESSNA 172 SKYHAWK
(C172)
More flights by this aircraft type
Origin: KMHV Mojave
United States
Destination: KVCV Socal Logistics
United States
More flights between these airports :: More routes between these airports
Route: L00 GWF
File this flight plan on PilotEdge
Remarks:
Altitude:
(Current/Filed)
4,000ft
Speed:
(Current/Filed)
110kts
Departed: 26-Jun-23 07:22 AM
Arrived: 26-Jun-23 08:00 AM
Distance/Time
Traveled:
48nm/0:38
Distance/Time
To Go:
Arrived

Flight Plot

Page will automatically refresh every two minutes.

Flight plan parsing failed; only flown route is shown


Map Options




Map Legend


Flown Route
Filed Route
Departure Airport
Arrival Airport
Navaid (VOR, NDB)
Fix

Horizontal Profiles

Position Reports

Time Latitude Longitude Heading Altitude Ground
Speed
26-Jun-23 07:03 35.057008 -118.160867 270 2775ft 0kts
26-Jun-23 07:04 35.057008 -118.160867 270 2775ft 0kts
26-Jun-23 07:05 35.057008 -118.160867 270 2775ft 0kts
26-Jun-23 07:06 35.057008 -118.160867 270 2775ft 0kts
26-Jun-23 07:07 35.057008 -118.160867 270 2775ft 0kts
26-Jun-23 07:08 35.057008 -118.160867 269 2775ft 0kts
26-Jun-23 07:09 35.057008 -118.160867 269 2775ft 0kts
26-Jun-23 07:10 35.057008 -118.160867 269 2775ft 0kts
26-Jun-23 07:11 35.057008 -118.160867 269 2775ft 0kts
26-Jun-23 07:12 35.057008 -118.160867 269 2775ft 0kts
26-Jun-23 07:13 35.057017 -118.161079 289 2775ft 7kts
26-Jun-23 07:14 35.057716 -118.156937 89 2763ft 25kts
26-Jun-23 07:15 35.057598 -118.149167 90 2762ft 12kts
26-Jun-23 07:16 35.054853 -118.145475 135 2751ft 31kts
26-Jun-23 07:17 35.049547 -118.138865 135 2728ft 23kts
26-Jun-23 07:18 35.044854 -118.133369 134 2687ft 23kts
26-Jun-23 07:19 35.044200 -118.131870 43 2683ft 0kts
26-Jun-23 07:20 35.044200 -118.131870 42 2683ft 0kts
26-Jun-23 07:21 35.044655 -118.131481 23 2683ft 18kts
26-Jun-23 07:21 35.054412 -118.142690 314 2919ft 82kts
26-Jun-23 07:23 35.055973 -118.168485 197 3674ft 96kts
26-Jun-23 07:24 35.029181 -118.163519 168 3840ft 98kts
26-Jun-23 07:25 35.001739 -118.159312 178 3812ft 98kts
26-Jun-23 07:26 34.974319 -118.160173 190 3757ft 98kts
26-Jun-23 07:26 34.951930 -118.165461 192 3728ft 98kts
26-Jun-23 07:27 34.924740 -118.168637 182 3694ft 98kts
26-Jun-23 07:29 34.892734 -118.168194 180 3666ft 98kts
26-Jun-23 07:30 34.865719 -118.172847 190 3665ft 98kts
26-Jun-23 07:30 34.843080 -118.176338 188 3696ft 98kts
26-Jun-23 07:31 34.816095 -118.181146 188 3755ft 98kts
26-Jun-23 07:32 34.788690 -118.181532 189 4008ft 97kts
26-Jun-23 07:33 34.766604 -118.166431 124 4347ft 101kts
26-Jun-23 07:34 34.756658 -118.134539 104 4636ft 101kts
26-Jun-23 07:35 34.755784 -118.100608 82 4842ft 101kts
26-Jun-23 07:36 34.757604 -118.066190 90 4994ft 101kts
26-Jun-23 07:37 34.756252 -118.030092 96 4972ft 105kts
26-Jun-23 07:38 34.748034 -117.995477 105 4948ft 107kts
26-Jun-23 07:39 34.741286 -117.960372 100 4963ft 107kts
26-Jun-23 07:40 34.735666 -117.924887 104 4918ft 106kts
26-Jun-23 07:41 34.735816 -117.889439 79 4848ft 108kts
26-Jun-23 07:42 34.725513 -117.856255 123 4823ft 106kts
26-Jun-23 07:43 34.709552 -117.825810 119 4782ft 106kts
26-Jun-23 07:44 34.699947 -117.791701 104 4739ft 107kts
26-Jun-23 07:45 34.692017 -117.757005 106 4709ft 107kts
26-Jun-23 07:46 34.685747 -117.721645 99 4703ft 106kts
26-Jun-23 07:47 34.679032 -117.686787 116 4659ft 107kts
26-Jun-23 07:48 34.667718 -117.653595 110 4635ft 106kts
26-Jun-23 07:49 34.657512 -117.619716 108 4617ft 106kts
26-Jun-23 07:50 34.649315 -117.585098 103 4573ft 106kts
26-Jun-23 07:51 34.643127 -117.549889 103 4565ft 106kts
26-Jun-23 07:52 34.636222 -117.514915 109 4504ft 107kts
26-Jun-23 07:53 34.632638 -117.479494 89 4325ft 106kts
26-Jun-23 07:54 34.632905 -117.444205 87 4050ft 102kts
26-Jun-23 07:55 34.636171 -117.411603 93 3736ft 87kts
26-Jun-23 07:56 34.634944 -117.382462 109 3370ft 87kts
26-Jun-23 07:57 34.622556 -117.360244 125 3143ft 77kts
26-Jun-23 07:58 34.606546 -117.359659 229 3062ft 76kts
26-Jun-23 07:59 34.595843 -117.372186 221 2856ft 23kts
26-Jun-23 08:00 34.593861 -117.372734 181 2858ft 0kts
26-Jun-23 08:01 34.591618 -117.374303 222 2864ft 9kts
26-Jun-23 08:02 34.589511 -117.374399 157 2869ft 8kts
26-Jun-23 08:03 34.588541 -117.375010 46 2873ft 6kts
26-Jun-23 08:04 34.588580 -117.374967 42 2872ft 0kts
26-Jun-23 08:05 34.588580 -117.374967 42 2872ft 0kts

Navigation Log

Ident Type
Flight plan parsing failed, navigation log unavailable